Time;durP1;ratioP1;P1;durP2;ratioP2;P2;SDS_P1;SDS_P2;PMS_P1;PMS_P2;Temp;Humidity;BMP_temperature;BMP_pressure;BME280_temperature;BME280_humidity;BME280_pressure;Samples;Min_cycle;Max_cycle;Signal;HPM_P1;HPM_P2
2023/05/05 00:00:14;;;;;;;3.33;3.05;;;15.60;53.50;;;;;;934964;149;27320;-75
2023/05/05 00:02:40;;;;;;;4.03;3.50;;;15.60;53.60;;;;;;912288;153;27377;-75
2023/05/05 00:05:07;;;;;;;6.27;4.00;;;15.60;53.60;;;;;;934705;149;27430;-75
2023/05/05 00:07:33;;;;;;;4.53;3.47;;;15.60;53.60;;;;;;934085;150;27458;-75
2023/05/05 00:10:00;;;;;;;3.30;3.00;;;15.60;53.70;;;;;;918675;152;27481;-75
2023/05/05 00:12:27;;;;;;;3.43;3.13;;;15.60;53.70;;;;;;911502;152;27454;-75
2023/05/05 00:14:53;;;;;;;3.23;2.93;;;15.60;53.60;;;;;;934906;149;27271;-75
2023/05/05 00:17:20;;;;;;;4.12;3.55;;;15.50;53.70;;;;;;934785;149;27416;-75
2023/05/05 00:19:46;;;;;;;3.57;3.27;;;15.50;53.70;;;;;;935096;149;27905;-75
2023/05/05 00:22:13;;;;;;;2.95;2.65;;;15.50;53.80;;;;;;912648;153;27489;-75
2023/05/05 00:24:40;;;;;;;4.33;3.10;;;15.50;53.90;;;;;;912453;153;27352;-75
2023/05/05 00:27:06;;;;;;;3.23;2.93;;;15.50;54.00;;;;;;916022;153;27622;-75
2023/05/05 00:29:33;;;;;;;8.83;2.80;;;15.40;54.00;;;;;;934836;149;27350;-75
2023/05/05 00:31:59;;;;;;;3.20;2.90;;;15.40;54.00;;;;;;912290;153;27409;-75
2023/05/05 00:34:26;;;;;;;4.58;2.95;;;15.40;54.20;;;;;;934294;149;27302;-75
2023/05/05 00:36:53;;;;;;;2.40;2.20;;;15.30;54.70;;;;;;924423;152;27362;-75
2023/05/05 00:39:19;;;;;;;3.03;2.73;;;15.30;54.30;;;;;;919009;153;27384;-75
2023/05/05 00:41:46;;;;;;;2.93;2.70;;;15.30;54.30;;;;;;917800;153;27371;-75
2023/05/05 00:44:12;;;;;;;3.05;2.47;;;15.30;54.30;;;;;;927483;152;27705;-75
2023/05/05 00:46:39;;;;;;;3.50;2.77;;;15.30;54.40;;;;;;927921;151;27358;-75
2023/05/05 00:49:05;;;;;;;2.60;2.40;;;15.30;54.40;;;;;;927232;152;27373;-75
2023/05/05 00:51:32;;;;;;;2.40;2.20;;;15.30;54.50;;;;;;927196;152;27502;-75
2023/05/05 00:53:59;;;;;;;3.43;2.60;;;15.30;54.50;;;;;;927582;151;27354;-75
2023/05/05 00:56:26;;;;;;;4.00;2.40;;;15.30;54.50;;;;;;926958;152;27872;-75
2023/05/05 00:58:52;;;;;;;2.80;2.60;;;15.30;54.50;;;;;;927470;152;27454;-75
2023/05/05 01:01:19;;;;;;;2.77;2.40;;;15.30;54.50;;;;;;927651;152;27377;-75
2023/05/05 01:03:45;;;;;;;3.33;2.57;;;15.30;54.60;;;;;;926945;151;27898;-75
2023/05/05 01:06:30;;;;;;;3.30;2.97;;;15.30;54.60;;;;;;927431;152;27366;-75
2023/05/05 01:09:08;;;;;;;2.50;2.30;;;15.30;54.70;;;;;;926801;152;27430;-76
2023/05/05 01:11:35;;;;;;;4.40;2.83;;;15.30;54.60;;;;;;925773;152;27419;-75
2023/05/05 01:14:14;;;;;;;2.70;2.30;;;15.30;54.70;;;;;;926563;152;27935;-75
2023/05/05 01:16:40;;;;;;;3.10;2.50;;;15.30;54.70;;;;;;926113;152;27314;-75
2023/05/05 01:19:29;;;;;;;3.52;2.80;;;15.30;54.80;;;;;;926225;152;27470;-75
2023/05/05 01:22:01;;;;;;;2.93;2.60;;;15.30;54.80;;;;;;926620;151;27311;-75
2023/05/05 01:24:49;;;;;;;2.97;2.70;;;15.30;54.70;;;;;;926742;152;27398;-75
2023/05/05 01:27:30;;;;;;;3.17;2.60;;;15.30;54.80;;;;;;926361;152;27371;-76
2023/05/05 01:30:24;;;;;;;3.67;2.80;;;15.30;54.70;;;;;;914463;151;27427;-75
2023/05/05 01:32:53;;;;;;;2.60;2.40;;;15.30;54.80;;;;;;927571;152;27377;-75
2023/05/05 01:35:20;;;;;;;2.90;2.70;;;15.30;54.80;;;;;;926939;152;27327;-75
2023/05/05 01:37:50;;;;;;;3.30;3.00;;;15.20;55.00;;;;;;926402;152;27497;-75
2023/05/05 01:40:17;;;;;;;3.77;2.77;;;15.20;55.10;;;;;;911430;152;27373;-75
2023/05/05 01:42:43;;;;;;;3.00;2.70;;;15.20;55.30;;;;;;912672;152;27355;-75
2023/05/05 01:45:09;;;;;;;3.00;2.65;;;15.20;55.90;;;;;;911289;152;27321;-75
2023/05/05 01:47:36;;;;;;;3.80;2.98;;;15.20;55.40;;;;;;918665;152;27380;-75
2023/05/05 01:50:03;;;;;;;3.10;2.80;;;15.10;55.40;;;;;;933721;150;27370;-75
2023/05/05 01:52:29;;;;;;;3.33;3.03;;;15.10;55.60;;;;;;934462;150;27472;-75
2023/05/05 01:54:56;;;;;;;4.05;3.05;;;15.10;55.70;;;;;;934997;149;27814;-75
2023/05/05 01:57:22;;;;;;;4.00;3.40;;;15.10;55.80;;;;;;911225;153;27428;-75
2023/05/05 01:59:49;;;;;;;5.73;2.90;;;15.10;56.00;;;;;;926051;151;27397;-75
2023/05/05 02:02:16;;;;;;;4.53;3.40;;;15.10;56.00;;;;;;934556;150;27299;-75
2023/05/05 02:04:42;;;;;;;2.70;2.50;;;15.10;56.00;;;;;;912136;152;27331;-75
2023/05/05 02:07:09;;;;;;;3.72;3.10;;;15.10;56.00;;;;;;918352;152;27360;-76
2023/05/05 02:09:35;;;;;;;3.47;2.93;;;15.00;56.00;;;;;;912090;153;27404;-75
2023/05/05 02:12:02;;;;;;;3.20;2.90;;;15.00;56.10;;;;;;912470;153;27392;-76
2023/05/05 02:14:29;;;;;;;3.70;3.07;;;15.00;56.10;;;;;;917728;152;27352;-76
2023/05/05 02:16:55;;;;;;;3.87;3.10;;;14.90;56.20;;;;;;918377;152;27433;-75
2023/05/05 02:19:22;;;;;;;3.47;3.13;;;14.90;56.40;;;;;;912435;153;27348;-76
2023/05/05 02:21:48;;;;;;;3.47;3.17;;;14.80;56.40;;;;;;924577;152;27396;-75
2023/05/05 02:24:15;;;;;;;3.10;2.80;;;14.80;56.50;;;;;;924442;154;27405;-76
2023/05/05 02:26:41;;;;;;;3.13;2.83;;;14.70;56.60;;;;;;925254;154;27371;-76
2023/05/05 02:29:17;;;;;;;3.53;3.23;;;14.70;56.70;;;;;;923325;154;27415;-75
2023/05/05 02:31:44;;;;;;;3.17;2.90;;;14.70;56.90;;;;;;924769;152;27776;-75
2023/05/05 02:34:10;;;;;;;4.50;3.20;;;14.60;56.90;;;;;;916332;152;27294;-76
2023/05/05 02:36:37;;;;;;;3.60;3.02;;;14.60;56.40;;;;;;938715;151;27433;-76
2023/05/05 02:39:03;;;;;;;3.90;3.07;;;14.60;57.20;;;;;;938444;152;27369;-75
2023/05/05 02:41:30;;;;;;;3.27;2.97;;;14.60;57.40;;;;;;937749;151;27447;-76
2023/05/05 02:43:56;;;;;;;3.60;3.30;;;14.60;57.40;;;;;;924583;152;27478;-76
2023/05/05 02:46:23;;;;;;;3.47;3.00;;;14.60;57.50;;;;;;924002;154;27373;-76
2023/05/05 02:48:50;;;;;;;3.93;3.30;;;14.60;57.60;;;;;;939387;150;27316;-75
2023/05/05 02:51:16;;;;;;;3.47;2.93;;;14.60;57.60;;;;;;938660;152;27322;-76
2023/05/05 02:53:43;;;;;;;4.20;3.40;;;14.50;57.70;;;;;;938453;150;27461;-76
2023/05/05 02:56:33;;;;;;;4.70;3.00;;;14.50;57.70;;;;;;938317;152;27300;-75
2023/05/05 02:59:15;;;;;;;3.77;2.90;;;14.50;57.80;;;;;;937504;150;27313;-76
2023/05/05 03:01:55;;;;;;;4.07;3.40;;;14.50;57.80;;;;;;938272;152;27720;-76
2023/05/05 03:04:29;;;;;;;3.33;2.87;;;14.50;57.90;;;;;;923426;152;27454;-76
2023/05/05 03:06:56;;;;;;;3.30;3.00;;;14.50;57.90;;;;;;913294;154;27341;-76
2023/05/05 03:09:37;;;;;;;5.20;3.07;;;14.50;58.00;;;;;;924620;152;27536;-76
2023/05/05 03:12:04;;;;;;;3.33;3.07;;;14.40;58.00;;;;;;920455;154;27502;-76
2023/05/05 03:14:31;;;;;;;3.23;3.00;;;14.40;58.00;;;;;;923719;154;27382;-76
2023/05/05 03:16:57;;;;;;;4.27;2.90;;;14.40;58.20;;;;;;917112;152;27417;-76
2023/05/05 03:19:24;;;;;;;3.67;2.80;;;14.40;58.20;;;;;;919092;151;27404;-75
2023/05/05 03:21:51;;;;;;;3.80;2.70;;;14.40;58.30;;;;;;929539;151;27452;-76
2023/05/05 03:24:17;;;;;;;3.50;3.20;;;14.40;58.30;;;;;;947495;148;27360;-75
2023/05/05 03:26:44;;;;;;;4.30;2.67;;;14.40;58.30;;;;;;934494;151;27460;-76
2023/05/05 03:29:10;;;;;;;3.17;2.83;;;14.40;58.30;;;;;;947374;148;27368;-75
2023/05/05 03:31:37;;;;;;;3.50;3.20;;;14.40;58.40;;;;;;927770;151;27317;-76
2023/05/05 03:34:03;;;;;;;4.43;3.23;;;14.40;58.40;;;;;;947187;148;27325;-75
2023/05/05 03:36:30;;;;;;;3.47;3.20;;;14.40;58.40;;;;;;935638;151;27391;-75
2023/05/05 03:38:57;;;;;;;5.13;3.50;;;14.40;58.50;;;;;;926893;151;27896;-76
2023/05/05 03:41:23;;;;;;;4.23;3.40;;;14.40;58.60;;;;;;946791;148;27361;-75
2023/05/05 03:43:50;;;;;;;4.50;3.63;;;14.40;58.80;;;;;;947298;148;27312;-75
2023/05/05 03:46:16;;;;;;;3.90;3.50;;;14.40;58.90;;;;;;946992;148;27355;-76
2023/05/05 03:48:43;;;;;;;3.73;3.43;;;14.40;58.90;;;;;;947375;148;27368;-75
2023/05/05 03:51:09;;;;;;;5.03;3.93;;;14.50;59.00;;;;;;930434;151;27353;-75
2023/05/05 03:53:36;;;;;;;4.20;3.57;;;14.50;59.10;;;;;;934025;151;27333;-75
2023/05/05 03:56:03;;;;;;;4.40;3.33;;;14.50;59.10;;;;;;930422;151;27431;-75
2023/05/05 03:58:29;;;;;;;4.13;3.73;;;14.50;59.20;;;;;;927884;151;27390;-76
2023/05/05 04:00:56;;;;;;;3.50;3.20;;;14.50;59.20;;;;;;927796;152;27486;-76
2023/05/05 04:03:22;;;;;;;5.03;3.70;;;14.50;59.20;;;;;;930366;151;27484;-76
2023/05/05 04:05:49;;;;;;;3.67;3.33;;;14.50;59.20;;;;;;947397;148;27301;-75
2023/05/05 04:08:16;;;;;;;3.83;3.53;;;14.50;59.30;;;;;;946970;148;27320;-75
2023/05/05 04:10:42;;;;;;;3.63;3.33;;;14.50;59.30;;;;;;928578;151;27446;-76
2023/05/05 04:13:09;;;;;;;7.53;3.57;;;14.50;59.40;;;;;;946740;148;27275;-76
2023/05/05 04:15:35;;;;;;;5.33;4.10;;;14.50;59.40;;;;;;947260;149;27299;-76
2023/05/05 04:18:02;;;;;;;3.90;3.60;;;14.50;59.40;;;;;;947258;148;27328;-75
2023/05/05 04:20:29;;;;;;;3.60;3.30;;;14.50;59.40;;;;;;939779;149;27518;-75
2023/05/05 04:22:55;;;;;;;4.93;4.07;;;14.50;59.50;;;;;;934306;150;27365;-75
2023/05/05 04:25:22;;;;;;;3.87;3.47;;;14.50;59.60;;;;;;918971;152;27383;-75
2023/05/05 04:27:48;;;;;;;3.63;3.33;;;14.50;59.60;;;;;;923806;152;27313;-76
2023/05/05 04:30:15;;;;;;;4.20;3.50;;;14.50;59.70;;;;;;912436;153;27409;-75
2023/05/05 04:32:41;;;;;;;3.90;3.23;;;14.50;59.80;;;;;;912366;153;27802;-76
2023/05/05 04:35:08;;;;;;;4.57;3.53;;;14.50;59.80;;;;;;935269;149;27321;-75
2023/05/05 04:37:35;;;;;;;4.47;4.07;;;14.50;59.90;;;;;;911346;152;27452;-76
2023/05/05 04:40:01;;;;;;;4.07;3.77;;;14.60;60.00;;;;;;934221;149;27352;-75
2023/05/05 04:42:29;;;;;;;4.73;3.50;;;14.60;60.20;;;;;;917766;152;27469;-76
2023/05/05 04:44:54;;;;;;;5.40;3.30;;;14.60;60.30;;;;;;919203;152;27375;-76
2023/05/05 04:47:21;;;;;;;3.57;3.30;;;14.70;60.60;;;;;;923899;152;27366;-75
2023/05/05 04:49:48;;;;;;;5.53;3.60;;;14.80;60.80;;;;;;912951;153;27329;-75
2023/05/05 04:52:14;;;;;;;4.05;3.75;;;15.00;61.00;;;;;;934883;149;27374;-75
2023/05/05 04:54:41;;;;;;;4.83;3.62;;;15.10;61.00;;;;;;911340;153;27367;-76
2023/05/05 04:57:07;;;;;;;4.95;3.87;;;15.30;60.90;;;;;;927141;152;27388;-76
2023/05/05 04:59:34;;;;;;;3.58;3.27;;;15.50;61.00;;;;;;927524;152;27696;-76
2023/05/05 05:02:00;;;;;;;4.97;3.47;;;15.70;61.10;;;;;;926827;152;27315;-76
2023/05/05 05:04:27;;;;;;;4.10;3.72;;;16.10;61.80;;;;;;926403;152;27386;-76
2023/05/05 05:06:54;;;;;;;3.72;2.87;;;16.40;61.40;;;;;;916201;152;27315;-75
2023/05/05 05:09:20;;;;;;;4.97;3.55;;;16.80;61.40;;;;;;916833;151;27449;-76
2023/05/05 05:11:47;;;;;;;3.62;3.33;;;17.20;60.90;;;;;;912425;153;27319;-76
2023/05/05 05:14:13;;;;;;;4.15;3.27;;;17.60;60.00;;;;;;935092;149;27381;-76
2023/05/05 05:16:40;;;;;;;3.67;3.37;;;18.00;59.40;;;;;;919057;152;27362;-76
2023/05/05 05:19:07;;;;;;;3.70;3.02;;;18.30;58.60;;;;;;912274;153;27406;-76
2023/05/05 05:21:33;;;;;;;3.42;3.12;;;18.50;57.90;;;;;;935892;149;27389;-76
2023/05/05 05:24:00;;;;;;;3.20;2.95;;;18.50;57.30;;;;;;935386;149;27458;-76
2023/05/05 05:26:26;;;;;;;3.58;3.27;;;18.60;57.00;;;;;;934980;150;27362;-76
2023/05/05 05:28:53;;;;;;;3.27;3.00;;;18.60;56.70;;;;;;934128;150;27398;-76
2023/05/05 05:31:20;;;;;;;3.40;3.10;;;18.50;56.60;;;;;;914274;152;27463;-76
2023/05/05 05:33:46;;;;;;;3.80;2.75;;;18.50;56.60;;;;;;934584;149;27326;-76
2023/05/05 05:36:13;;;;;;;3.27;2.98;;;18.50;57.00;;;;;;923017;152;27369;-76
2023/05/05 05:38:39;;;;;;;3.12;2.83;;;18.60;57.60;;;;;;911387;152;27383;-76
2023/05/05 05:41:06;;;;;;;3.05;2.75;;;18.80;58.40;;;;;;927685;150;27763;-76
2023/05/05 05:43:32;;;;;;;4.03;3.42;;;19.20;58.80;;;;;;928526;150;27409;-76
2023/05/05 05:45:59;;;;;;;2.52;2.33;;;19.70;59.10;;;;;;928040;150;27491;-76
2023/05/05 05:48:27;;;;;;;3.42;2.92;;;20.40;59.00;;;;;;934670;150;27359;-76
2023/05/05 05:50:52;;;;;;;3.35;2.62;;;21.20;58.80;;;;;;934220;150;27440;-76
2023/05/05 05:53:19;;;;;;;3.00;2.72;;;21.90;58.20;;;;;;934174;149;27339;-76
2023/05/05 05:55:45;;;;;;;4.83;2.50;;;22.70;57.40;;;;;;922204;152;27319;-76
2023/05/05 05:58:12;;;;;;;2.77;2.58;;;23.50;56.40;;;;;;919075;152;27387;-76
2023/05/05 06:00:39;;;;;;;2.77;2.58;;;24.20;55.30;;;;;;919395;152;27466;-76
2023/05/05 06:03:06;;;;;;;3.72;2.67;;;24.90;54.50;;;;;;934743;149;27319;-76
2023/05/05 06:05:32;;;;;;;3.45;2.60;;;25.60;53.60;;;;;;935178;149;27264;-76
2023/05/05 06:07:58;;;;;;;4.90;2.40;;;26.20;52.80;;;;;;923398;152;27369;-76
2023/05/05 06:10:25;;;;;;;2.72;2.47;;;26.70;51.70;;;;;;916169;152;27509;-76
2023/05/05 06:12:52;;;;;;;4.25;2.50;;;27.10;50.70;;;;;;934939;149;27350;-76
2023/05/05 06:15:18;;;;;;;3.30;2.80;;;27.40;49.70;;;;;;933796;149;27296;-76
2023/05/05 06:17:45;;;;;;;2.47;2.22;;;27.70;48.90;;;;;;911176;152;27336;-76
2023/05/05 06:20:12;;;;;;;3.15;2.52;;;27.80;48.30;;;;;;934867;149;27367;-76
2023/05/05 06:22:38;;;;;;;2.55;2.35;;;27.90;48.00;;;;;;935872;148;27436;-76
2023/05/05 06:25:05;;;;;;;2.42;2.22;;;28.00;47.80;;;;;;930482;151;27690;-76
2023/05/05 06:27:31;;;;;;;3.00;2.42;;;28.10;47.70;;;;;;946539;149;27317;-76
2023/05/05 06:29:58;;;;;;;4.03;2.40;;;28.30;47.80;;;;;;947649;148;27314;-76
2023/05/05 06:32:25;;;;;;;3.47;2.37;;;28.60;47.80;;;;;;947069;148;27369;-76
2023/05/05 06:34:51;;;;;;;3.55;2.22;;;28.90;47.50;;;;;;930405;151;27386;-76
2023/05/05 06:37:18;;;;;;;2.75;2.20;;;29.20;47.10;;;;;;928118;151;27354;-76
2023/05/05 06:39:44;;;;;;;2.58;2.02;;;29.50;46.50;;;;;;930910;151;27326;-76
2023/05/05 06:42:11;;;;;;;2.37;2.17;;;29.70;45.70;;;;;;934935;151;27355;-76
2023/05/05 06:44:38;;;;;;;5.67;2.40;;;29.80;45.10;;;;;;928404;151;27483;-76
2023/05/05 06:47:04;;;;;;;2.42;2.22;;;29.90;45.10;;;;;;928060;152;27367;-76
2023/05/05 06:49:31;;;;;;;2.45;2.25;;;30.00;45.40;;;;;;927790;152;27358;-76
2023/05/05 06:51:57;;;;;;;2.10;1.90;;;30.30;45.70;;;;;;927784;152;27342;-76
2023/05/05 06:54:24;;;;;;;4.75;2.20;;;30.70;45.90;;;;;;945720;148;27359;-76
2023/05/05 06:56:50;;;;;;;3.65;2.25;;;31.10;45.40;;;;;;945989;151;27417;-76
2023/05/05 06:59:17;;;;;;;2.30;2.10;;;31.60;45.00;;;;;;945970;148;27300;-76
2023/05/05 07:01:44;;;;;;;2.40;2.20;;;32.10;44.50;;;;;;945926;151;27384;-76
2023/05/05 07:04:10;;;;;;;2.58;2.37;;;32.50;44.00;;;;;;945256;151;27504;-76
2023/05/05 07:06:37;;;;;;;3.08;2.60;;;33.00;43.60;;;;;;946068;151;27479;-76
2023/05/05 07:09:03;;;;;;;3.30;2.80;;;33.40;43.30;;;;;;945341;151;26221;-76
2023/05/05 07:11:30;;;;;;;2.65;2.45;;;33.80;42.90;;;;;;945988;151;26315;-76
2023/05/05 07:13:57;;;;;;;5.05;2.12;;;34.20;42.60;;;;;;944760;151;27376;-76
2023/05/05 07:16:23;;;;;;;2.70;2.50;;;34.60;41.90;;;;;;923890;151;26353;-76
2023/05/05 07:18:50;;;;;;;2.75;2.25;;;35.00;41.30;;;;;;930134;151;26246;-76
2023/05/05 07:21:16;;;;;;;5.03;2.40;;;35.30;41.00;;;;;;946754;148;26685;-76
2023/05/05 07:23:45;;;;;;;2.35;2.20;;;35.60;40.60;;;;;;946626;148;26295;-76
2023/05/05 07:26:10;;;;;;;5.12;2.70;;;36.00;40.70;;;;;;926261;151;26305;-76
2023/05/05 07:28:36;;;;;;;2.58;2.37;;;36.40;41.10;;;;;;946930;149;26212;-76
2023/05/05 07:31:03;;;;;;;3.55;2.20;;;36.90;40.10;;;;;;946888;148;26231;-76
2023/05/05 07:33:30;;;;;;;2.30;2.20;;;37.30;39.40;;;;;;931101;150;26315;-76
2023/05/05 07:35:56;;;;;;;3.58;2.50;;;37.70;38.60;;;;;;950764;148;26277;-76
2023/05/05 07:38:24;;;;;;;1.92;1.82;;;37.80;37.90;;;;;;927936;151;26378;-76
2023/05/05 07:40:49;;;;;;;2.75;2.52;;;38.00;37.40;;;;;;927775;152;27422;-76
2023/05/05 07:43:16;;;;;;;3.22;2.35;;;38.10;37.20;;;;;;945426;148;26223;-76
2023/05/05 07:45:42;;;;;;;2.25;2.08;;;38.20;37.20;;;;;;946009;148;26293;-76
2023/05/05 07:48:09;;;;;;;2.67;2.47;;;38.40;37.10;;;;;;945667;151;27397;-76
2023/05/05 07:50:35;;;;;;;2.50;2.30;;;38.70;36.80;;;;;;926773;152;26379;-76
2023/05/05 07:53:02;;;;;;;2.77;2.30;;;39.00;36.50;;;;;;946755;148;26231;-76
2023/05/05 07:55:29;;;;;;;2.55;2.20;;;39.20;36.40;;;;;;947282;148;26251;-76
2023/05/05 07:57:55;;;;;;;2.60;2.40;;;39.60;36.20;;;;;;946781;148;26375;-76
2023/05/05 08:00:22;;;;;;;3.33;2.35;;;40.00;35.90;;;;;;928914;151;26324;-77
2023/05/05 08:02:48;;;;;;;2.95;2.25;;;40.50;35.60;;;;;;949405;148;26634;-76
2023/05/05 08:05:15;;;;;;;2.87;2.22;;;40.90;35.20;;;;;;950148;148;26301;-77
2023/05/05 08:07:42;;;;;;;2.27;2.10;;;41.40;35.00;;;;;;947171;148;26240;-76
2023/05/05 08:10:08;;;;;;;2.90;2.15;;;41.80;34.50;;;;;;928971;149;26451;-74
2023/05/05 08:12:35;;;;;;;3.75;2.27;;;42.20;34.10;;;;;;929209;151;26249;-74
2023/05/05 08:15:01;;;;;;;2.20;2.00;;;42.60;33.50;;;;;;946841;148;26265;-74
2023/05/05 08:17:28;;;;;;;1.80;1.70;;;42.90;32.90;;;;;;929329;151;26262;-74
2023/05/05 08:19:55;;;;;;;2.12;1.90;;;43.20;32.60;;;;;;931176;151;26315;-74
2023/05/05 08:22:21;;;;;;;2.10;1.90;;;43.40;32.30;;;;;;927038;152;26382;-74
2023/05/05 08:24:48;;;;;;;2.17;1.98;;;43.60;32.00;;;;;;920537;152;26317;-75
2023/05/05 08:27:14;;;;;;;2.40;2.20;;;43.80;31.50;;;;;;912365;153;26597;-74
2023/05/05 08:29:41;;;;;;;5.60;2.40;;;43.90;31.00;;;;;;927473;152;26308;-74
2023/05/05 08:32:07;;;;;;;2.08;1.98;;;43.90;30.60;;;;;;926402;152;26366;-74
2023/05/05 08:34:34;;;;;;;2.50;2.25;;;43.70;30.20;;;;;;926063;152;26347;-74
2023/05/05 08:37:01;;;;;;;2.05;1.90;;;43.40;30.00;;;;;;911783;153;26307;-74
2023/05/05 08:39:27;;;;;;;2.90;2.00;;;42.90;29.90;;;;;;935415;149;26265;-74
2023/05/05 08:41:54;;;;;;;4.25;2.50;;;42.50;30.00;;;;;;934937;149;26347;-74
2023/05/05 08:44:20;;;;;;;2.80;2.30;;;42.00;30.00;;;;;;933129;149;26341;-74
2023/05/05 08:46:47;;;;;;;2.08;1.95;;;41.40;30.10;;;;;;933910;149;26256;-74
2023/05/05 08:49:15;;;;;;;2.47;2.37;;;40.90;30.50;;;;;;933452;149;26338;-74
2023/05/05 08:51:40;;;;;;;2.20;2.00;;;40.50;31.00;;;;;;933414;149;26271;-74
2023/05/05 08:54:07;;;;;;;2.17;1.98;;;40.20;31.40;;;;;;933176;149;26251;-74
2023/05/05 08:56:33;;;;;;;3.25;2.12;;;40.10;31.80;;;;;;933440;149;26309;-74
2023/05/05 08:59:03;;;;;;;3.72;2.50;;;40.20;32.30;;;;;;933203;149;26349;-74
2023/05/05 09:01:30;;;;;;;4.05;1.90;;;40.30;32.30;;;;;;933582;149;26306;-74
2023/05/05 09:03:56;;;;;;;2.35;2.20;;;40.50;32.30;;;;;;933369;149;26280;-75
2023/05/05 09:06:25;;;;;;;2.47;2.10;;;40.70;32.10;;;;;;934004;149;26264;-75
2023/05/05 09:08:49;;;;;;;2.40;2.20;;;40.80;31.70;;;;;;933328;149;26404;-74
2023/05/05 09:11:16;;;;;;;2.22;2.05;;;40.90;31.40;;;;;;934156;149;26256;-75
2023/05/05 09:13:43;;;;;;;3.50;2.20;;;40.70;31.20;;;;;;933481;149;26368;-74
2023/05/05 09:16:09;;;;;;;2.62;2.20;;;40.50;31.00;;;;;;933754;149;26177;-74
2023/05/05 09:18:39;;;;;;;2.17;2.00;;;40.20;30.90;;;;;;933033;149;27445;-74
2023/05/05 09:21:05;;;;;;;2.00;1.90;;;39.80;30.90;;;;;;934120;149;26263;-75
2023/05/05 09:23:32;;;;;;;1.85;1.75;;;39.30;31.00;;;;;;927047;149;26296;-74
2023/05/05 09:26:04;;;;;;;2.85;2.00;;;38.90;31.40;;;;;;933351;149;26279;-74
2023/05/05 09:28:31;;;;;;;1.87;1.77;;;38.50;31.70;;;;;;933008;149;26320;-76
2023/05/05 09:30:58;;;;;;;1.85;1.75;;;38.10;32.10;;;;;;933528;149;26209;-79
2023/05/05 09:33:30;;;;;;;2.50;2.05;;;37.80;32.80;;;;;;930313;149;26377;-79
2023/05/05 09:35:56;;;;;;;2.83;2.20;;;37.80;33.30;;;;;;933551;149;27597;-79
2023/05/05 09:38:23;;;;;;;2.08;1.87;;;37.80;33.60;;;;;;934173;149;26324;-79
2023/05/05 09:40:52;;;;;;;2.60;1.87;;;38.00;33.50;;;;;;933562;149;26188;-79
2023/05/05 09:43:19;;;;;;;1.70;1.60;;;38.10;33.50;;;;;;933400;149;26416;-80
2023/05/05 09:45:47;;;;;;;2.20;2.00;;;38.30;33.50;;;;;;934166;149;26344;-80
2023/05/05 09:48:25;;;;;;;2.22;1.80;;;38.40;33.00;;;;;;934635;149;26335;-80
2023/05/05 09:50:51;;;;;;;1.75;1.65;;;38.50;32.90;;;;;;911408;153;26337;-79
2023/05/05 09:53:18;;;;;;;1.50;1.40;;;38.50;32.80;;;;;;926563;152;26224;-79
2023/05/05 09:55:56;;;;;;;3.42;1.80;;;38.40;32.60;;;;;;927301;151;26295;-80
2023/05/05 09:58:23;;;;;;;5.22;1.75;;;38.20;32.40;;;;;;927009;152;26318;-79
2023/05/05 10:00:50;;;;;;;1.95;1.72;;;38.00;32.30;;;;;;926553;152;26316;-80
2023/05/05 10:03:16;;;;;;;1.45;1.35;;;37.70;32.20;;;;;;926559;152;26297;-80
2023/05/05 10:05:55;;;;;;;1.87;1.65;;;37.50;32.20;;;;;;926559;151;26364;-79
2023/05/05 10:08:21;;;;;;;2.00;1.80;;;37.20;32.30;;;;;;912377;152;26333;-79
2023/05/05 10:10:57;;;;;;;1.67;1.57;;;36.90;32.60;;;;;;918064;152;27378;-79
2023/05/05 10:13:23;;;;;;;1.87;1.25;;;36.70;32.90;;;;;;912317;153;26306;-80
2023/05/05 10:15:50;;;;;;;1.30;1.20;;;36.40;33.00;;;;;;912550;153;27571;-80
2023/05/05 10:18:16;;;;;;;1.40;1.30;;;36.10;33.00;;;;;;935214;149;26249;-80
2023/05/05 10:20:42;;;;;;;1.22;1.07;;;36.00;33.20;;;;;;910496;153;26248;-80
2023/05/05 10:23:09;;;;;;;1.27;1.12;;;35.70;33.10;;;;;;926647;152;27448;-80
2023/05/05 10:25:36;;;;;;;0.90;0.90;;;35.60;33.00;;;;;;932120;149;26429;-80
2023/05/05 10:28:02;;;;;;;1.10;0.90;;;35.40;33.00;;;;;;926380;152;27471;-80
2023/05/05 10:30:29;;;;;;;0.85;0.80;;;35.20;32.70;;;;;;918119;151;27338;-80
2023/05/05 10:33:08;;;;;;;1.65;1.17;;;35.00;32.80;;;;;;911758;153;27436;-80
2023/05/05 10:35:34;;;;;;;2.12;1.52;;;34.90;33.00;;;;;;934234;149;27367;-80
2023/05/05 10:38:01;;;;;;;1.77;1.35;;;34.80;33.10;;;;;;934316;150;27433;-80
2023/05/05 10:40:27;;;;;;;1.72;1.10;;;34.70;33.20;;;;;;933940;149;27422;-80
2023/05/05 10:42:54;;;;;;;2.20;1.05;;;34.60;33.20;;;;;;918443;152;27364;-79
2023/05/05 10:45:21;;;;;;;1.22;1.12;;;34.60;33.50;;;;;;934880;149;27287;-80
2023/05/05 10:47:47;;;;;;;0.80;0.80;;;34.60;33.40;;;;;;918856;152;27469;-80
2023/05/05 10:50:32;;;;;;;0.90;0.80;;;34.50;33.20;;;;;;918172;152;27492;-80
2023/05/05 10:53:16;;;;;;;0.70;0.62;;;34.50;32.90;;;;;;912151;152;27336;-80
2023/05/05 10:55:43;;;;;;;2.22;1.12;;;34.50;32.60;;;;;;917098;152;27406;-80
2023/05/05 10:58:10;;;;;;;1.07;1.00;;;34.40;32.40;;;;;;918635;152;27416;-79
2023/05/05 11:00:39;;;;;;;0.78;0.78;;;34.40;32.40;;;;;;913441;152;27376;-79
2023/05/05 11:03:18;;;;;;;1.37;1.27;;;34.30;32.60;;;;;;918889;152;27429;-80
2023/05/05 11:06:11;;;;;;;0.80;0.80;;;34.20;32.60;;;;;;934249;149;27347;-80
2023/05/05 11:08:41;;;;;;;2.58;1.22;;;34.20;32.80;;;;;;911265;152;27289;-80
2023/05/05 11:11:09;;;;;;;0.80;0.80;;;34.10;32.90;;;;;;934307;149;27741;-79
2023/05/05 11:13:34;;;;;;;0.85;0.65;;;34.10;32.30;;;;;;912103;153;27412;-80
2023/05/05 11:16:04;;;;;;;0.70;0.70;;;34.00;32.20;;;;;;911759;152;27450;-79
2023/05/05 11:18:36;;;;;;;0.47;0.47;;;33.90;32.20;;;;;;934245;150;27439;-79
2023/05/05 11:21:14;;;;;;;0.85;0.85;;;33.80;32.20;;;;;;934919;150;27366;-79
2023/05/05 11:23:31;;;;;;;1.25;0.88;;;33.80;32.30;;;;;;916541;152;27458;-79
2023/05/05 11:25:58;;;;;;;0.85;0.85;;;33.70;32.10;;;;;;936916;150;27471;-79
2023/05/05 11:28:27;;;;;;;0.93;0.88;;;33.60;32.40;;;;;;947551;148;27345;-79
2023/05/05 11:30:57;;;;;;;0.82;0.70;;;33.50;32.60;;;;;;945809;148;27477;-79
2023/05/05 11:33:29;;;;;;;0.95;0.88;;;33.50;32.50;;;;;;946141;148;27384;-79
2023/05/05 11:35:56;;;;;;;0.90;0.90;;;33.40;32.00;;;;;;947511;148;27269;-79
2023/05/05 11:38:23;;;;;;;2.47;0.98;;;33.40;32.40;;;;;;947713;148;27381;-79
2023/05/05 11:40:49;;;;;;;1.00;0.85;;;33.30;32.40;;;;;;946252;149;27449;-79
2023/05/05 11:43:16;;;;;;;0.75;0.72;;;33.30;32.40;;;;;;946513;148;27340;-79
2023/05/05 11:45:42;;;;;;;0.85;0.70;;;33.20;32.50;;;;;;946010;148;27327;-76
2023/05/05 11:48:27;;;;;;;2.05;1.02;;;33.10;32.70;;;;;;946823;149;27369;-76
2023/05/05 11:50:53;;;;;;;1.35;1.10;;;33.10;32.90;;;;;;947170;149;27955;-76
2023/05/05 11:53:20;;;;;;;0.88;0.88;;;33.10;33.10;;;;;;946848;148;27406;-76
2023/05/05 11:55:47;;;;;;;3.83;1.40;;;33.00;33.10;;;;;;947486;148;27342;-76
2023/05/05 11:58:19;;;;;;;1.40;1.05;;;33.00;32.80;;;;;;947982;150;27805;-76
2023/05/05 12:00:46;;;;;;;1.72;1.05;;;32.90;32.80;;;;;;948013;150;27361;-76
2023/05/05 12:03:12;;;;;;;1.00;0.90;;;32.80;32.70;;;;;;947328;148;27329;-76
2023/05/05 12:05:39;;;;;;;1.15;1.10;;;32.60;32.70;;;;;;946745;150;27434;-76
2023/05/05 12:08:06;;;;;;;2.60;1.27;;;32.50;32.80;;;;;;947309;148;27348;-76
2023/05/05 12:10:32;;;;;;;1.65;1.20;;;32.40;32.80;;;;;;947663;151;27398;-76
2023/05/05 12:12:59;;;;;;;1.55;1.20;;;32.20;33.00;;;;;;947880;151;27436;-76
2023/05/05 12:15:31;;;;;;;0.70;0.70;;;32.00;33.80;;;;;;947792;150;27348;-76
2023/05/05 12:17:58;;;;;;;1.20;1.10;;;31.90;33.40;;;;;;948122;150;27371;-76
2023/05/05 12:20:35;;;;;;;1.35;1.25;;;31.80;33.50;;;;;;948093;150;27437;-76
2023/05/05 12:23:00;;;;;;;1.15;1.05;;;31.60;33.30;;;;;;947905;150;27492;-76
2023/05/05 12:25:27;;;;;;;1.50;0.90;;;31.60;33.40;;;;;;947746;150;27330;-76
2023/05/05 12:27:53;;;;;;;1.60;1.15;;;31.50;32.80;;;;;;945415;148;27345;-76
2023/05/05 12:30:20;;;;;;;2.02;0.90;;;31.40;33.60;;;;;;938330;148;27776;-76
2023/05/05 12:32:47;;;;;;;1.10;1.00;;;31.30;33.80;;;;;;938757;148;27344;-76
2023/05/05 12:35:14;;;;;;;0.82;0.80;;;31.30;34.10;;;;;;934054;150;27350;-76
2023/05/05 12:37:40;;;;;;;1.02;0.80;;;31.30;34.40;;;;;;933786;150;27382;-76
2023/05/05 12:40:07;;;;;;;0.72;0.72;;;31.30;34.60;;;;;;934164;150;27335;-76
2023/05/05 12:42:39;;;;;;;0.88;0.88;;;31.40;34.60;;;;;;934523;150;27385;-76
2023/05/05 12:45:05;;;;;;;0.50;0.50;;;31.50;34.60;;;;;;933644;150;27346;-76
2023/05/05 12:47:32;;;;;;;0.93;0.80;;;31.50;34.20;;;;;;937992;148;26154;-76
2023/05/05 12:49:59;;;;;;;0.70;0.68;;;31.60;34.10;;;;;;934400;150;27463;-76